sensor_id;sensor_type;location;lat;lon;timestamp;pressure;altitude;pressure_sealevel;temperature;humidity
6425;BME280;12193;42.642;23.384;2023-07-22T03:08:43;94387.81;;;22.67;91.73
6425;BME280;12193;42.642;23.384;2023-07-22T03:11:14;94390.44;;;22.72;91.28
6425;BME280;12193;42.642;23.384;2023-07-22T03:13:44;94388.56;;;22.72;91.32
6425;BME280;12193;42.642;23.384;2023-07-22T03:16:14;94389.09;;;22.69;91.32
6425;BME280;12193;42.642;23.384;2023-07-22T03:18:43;94382.69;;;22.75;90.57
6425;BME280;12193;42.642;23.384;2023-07-22T03:21:12;94381.53;;;22.86;90.26
6425;BME280;12193;42.642;23.384;2023-07-22T03:23:45;94386.28;;;22.89;90.25
6425;BME280;12193;42.642;23.384;2023-07-22T03:26:14;94383.88;;;22.93;88.83
6425;BME280;12193;42.642;23.384;2023-07-22T03:28:44;94386.25;;;22.94;87.76
6425;BME280;12193;42.642;23.384;2023-07-22T03:31:13;94382.19;;;23.07;87.52
6425;BME280;12193;42.642;23.384;2023-07-22T03:33:42;94387.72;;;23.05;87.78
6425;BME280;12193;42.642;23.384;2023-07-22T03:36:12;94396.53;;;23.01;88.53
6425;BME280;12193;42.642;23.384;2023-07-22T03:38:45;94389.63;;;23.00;88.62
6425;BME280;12193;42.642;23.384;2023-07-22T03:41:14;94395.28;;;22.93;88.75
6425;BME280;12193;42.642;23.384;2023-07-22T03:43:43;94407.47;;;22.94;88.05
6425;BME280;12193;42.642;23.384;2023-07-22T03:46:12;94407.47;;;22.94;86.94
6425;BME280;12193;42.642;23.384;2023-07-22T03:48:42;94409.81;;;22.96;85.04
6425;BME280;12193;42.642;23.384;2023-07-22T03:51:11;94417.56;;;22.92;83.80
6425;BME280;12193;42.642;23.384;2023-07-22T03:53:43;94428.66;;;22.94;83.70
6425;BME280;12193;42.642;23.384;2023-07-22T03:56:13;94430.06;;;22.87;84.18
6425;BME280;12193;42.642;23.384;2023-07-22T03:58:42;94428.44;;;22.91;84.10
6425;BME280;12193;42.642;23.384;2023-07-22T04:01:12;94424.03;;;22.81;84.40
6425;BME280;12193;42.642;23.384;2023-07-22T04:03:42;94428.84;;;22.74;85.15
6425;BME280;12193;42.642;23.384;2023-07-22T04:06:11;94438.28;;;22.85;84.41
6425;BME280;12193;42.642;23.384;2023-07-22T04:08:40;94434.63;;;22.81;84.86
6425;BME280;12193;42.642;23.384;2023-07-22T04:11:12;94432.47;;;22.83;85.26
6425;BME280;12193;42.642;23.384;2023-07-22T04:13:42;94438.78;;;22.87;85.72
6425;BME280;12193;42.642;23.384;2023-07-22T04:16:11;94435.78;;;22.99;85.15
6425;BME280;12193;42.642;23.384;2023-07-22T04:18:41;94436.91;;;22.93;85.71
6425;BME280;12193;42.642;23.384;2023-07-22T04:21:10;94428.47;;;22.86;86.35
6425;BME280;12193;42.642;23.384;2023-07-22T04:23:39;94431.88;;;22.91;85.53
6425;BME280;12193;42.642;23.384;2023-07-22T04:26:12;94431.81;;;23.01;85.80
6425;BME280;12193;42.642;23.384;2023-07-22T04:28:42;94440.75;;;23.10;85.17
6425;BME280;12193;42.642;23.384;2023-07-22T04:31:11;94441.50;;;23.15;85.34
6425;BME280;12193;42.642;23.384;2023-07-22T04:33:40;94442.13;;;23.36;84.98
6425;BME280;12193;42.642;23.384;2023-07-22T04:36:10;94448.81;;;23.28;85.28
6425;BME280;12193;42.642;23.384;2023-07-22T04:38:39;94455.91;;;23.61;83.72
6425;BME280;12193;42.642;23.384;2023-07-22T04:41:09;94448.97;;;23.42;84.44
6425;BME280;12193;42.642;23.384;2023-07-22T04:43:41;94450.59;;;23.38;85.10
6425;BME280;12193;42.642;23.384;2023-07-22T04:46:10;94451.69;;;23.60;84.07
6425;BME280;12193;42.642;23.384;2023-07-22T04:48:39;94456.94;;;23.65;83.74
6425;BME280;12193;42.642;23.384;2023-07-22T04:51:08;94454.88;;;23.57;83.80
6425;BME280;12193;42.642;23.384;2023-07-22T04:53:38;94458.53;;;23.66;84.51
6425;BME280;12193;42.642;23.384;2023-07-22T04:56:08;94455.47;;;23.83;82.71
6425;BME280;12193;42.642;23.384;2023-07-22T04:58:39;94441.44;;;23.77;83.87
6425;BME280;12193;42.642;23.384;2023-07-22T05:01:10;94452.69;;;23.93;83.44
6425;BME280;12193;42.642;23.384;2023-07-22T05:03:39;94452.47;;;24.08;82.72
6425;BME280;12193;42.642;23.384;2023-07-22T05:06:09;94456.59;;;24.19;81.92
6425;BME280;12193;42.642;23.384;2023-07-22T05:08:38;94459.44;;;24.45;81.19
6425;BME280;12193;42.642;23.384;2023-07-22T05:11:08;94461.13;;;24.60;80.16
6425;BME280;12193;42.642;23.384;2023-07-22T05:13:40;94469.09;;;24.78;79.55
6425;BME280;12193;42.642;23.384;2023-07-22T05:16:10;94469.16;;;24.73;79.17
6425;BME280;12193;42.642;23.384;2023-07-22T05:18:39;94473.19;;;24.52;79.53
6425;BME280;12193;42.642;23.384;2023-07-22T05:21:08;94475.63;;;24.67;78.96
6425;BME280;12193;42.642;23.384;2023-07-22T05:23:38;94471.59;;;25.07;77.34
6425;BME280;12193;42.642;23.384;2023-07-22T05:26:07;94477.94;;;25.42;75.76
6425;BME280;12193;42.642;23.384;2023-07-22T05:28:37;94474.06;;;25.35;75.48
6425;BME280;12193;42.642;23.384;2023-07-22T05:31:08;94474.97;;;25.89;73.25
6425;BME280;12193;42.642;23.384;2023-07-22T05:33:38;94472.38;;;26.51;70.60
6425;BME280;12193;42.642;23.384;2023-07-22T05:36:07;94477.22;;;26.98;67.32
6425;BME280;12193;42.642;23.384;2023-07-22T05:38:37;94472.03;;;27.02;67.26
6425;BME280;12193;42.642;23.384;2023-07-22T05:41:06;94475.75;;;27.58;64.21
6425;BME280;12193;42.642;23.384;2023-07-22T05:43:35;94471.78;;;28.08;61.20
6425;BME280;12193;42.642;23.384;2023-07-22T05:46:08;94476.63;;;28.36;59.82
6425;BME280;12193;42.642;23.384;2023-07-22T05:48:38;94475.19;;;28.94;57.77
6425;BME280;12193;42.642;23.384;2023-07-22T05:51:07;94481.31;;;29.03;57.13
6425;BME280;12193;42.642;23.384;2023-07-22T05:53:36;94484.44;;;28.80;58.38
6425;BME280;12193;42.642;23.384;2023-07-22T05:56:06;94477.06;;;28.85;58.13
6425;BME280;12193;42.642;23.384;2023-07-22T05:58:36;94482.34;;;28.52;58.26
6425;BME280;12193;42.642;23.384;2023-07-22T06:01:08;94476.09;;;28.90;56.87
6425;BME280;12193;42.642;23.384;2023-07-22T06:03:38;94473.28;;;29.03;57.31
6425;BME280;12193;42.642;23.384;2023-07-22T06:06:07;94482.41;;;29.19;56.12
6425;BME280;12193;42.642;23.384;2023-07-22T06:08:36;94482.38;;;28.77;57.83
6425;BME280;12193;42.642;23.384;2023-07-22T06:11:06;94491.97;;;28.69;58.03
6425;BME280;12193;42.642;23.384;2023-07-22T06:13:35;94496.75;;;28.34;60.10
6425;BME280;12193;42.642;23.384;2023-07-22T06:16:04;94499.34;;;28.64;59.33
6425;BME280;12193;42.642;23.384;2023-07-22T06:18:36;94498.00;;;28.28;59.34
6425;BME280;12193;42.642;23.384;2023-07-22T06:21:06;94507.78;;;29.30;55.53
6425;BME280;12193;42.642;23.384;2023-07-22T06:23:35;94512.66;;;30.25;52.37
6425;BME280;12193;42.642;23.384;2023-07-22T06:26:05;94517.50;;;30.31;51.94
6425;BME280;12193;42.642;23.384;2023-07-22T06:28:34;94518.66;;;30.22;51.97
6425;BME280;12193;42.642;23.384;2023-07-22T06:31:03;94524.50;;;30.24;52.34
6425;BME280;12193;42.642;23.384;2023-07-22T06:33:36;94521.41;;;30.05;53.06
6425;BME280;12193;42.642;23.384;2023-07-22T06:36:05;94518.81;;;29.46;55.24
6425;BME280;12193;42.642;23.384;2023-07-22T06:38:35;94524.25;;;30.00;52.25
6425;BME280;12193;42.642;23.384;2023-07-22T06:41:04;94525.34;;;31.31;48.36
6425;BME280;12193;42.642;23.384;2023-07-22T06:43:33;94528.47;;;31.74;47.34
6425;BME280;12193;42.642;23.384;2023-07-22T06:46:02;94533.66;;;31.18;47.62
6425;BME280;12193;42.642;23.384;2023-07-22T06:48:32;94530.88;;;30.57;48.89
6425;BME280;12193;42.642;23.384;2023-07-22T06:51:04;94535.78;;;30.55;49.77
6425;BME280;12193;42.642;23.384;2023-07-22T06:53:33;94533.41;;;31.02;47.93
6425;BME280;12193;42.642;23.384;2023-07-22T06:56:03;94531.41;;;30.71;49.39
6425;BME280;12193;42.642;23.384;2023-07-22T06:58:32;94525.78;;;30.18;50.06
6425;BME280;12193;42.642;23.384;2023-07-22T07:01:01;94524.34;;;30.20;50.51
6425;BME280;12193;42.642;23.384;2023-07-22T07:03:31;94524.63;;;30.27;50.63
6425;BME280;12193;42.642;23.384;2023-07-22T07:06:03;94517.69;;;30.35;50.40
6425;BME280;12193;42.642;23.384;2023-07-22T07:08:32;94519.50;;;30.80;49.26
6425;BME280;12193;42.642;23.384;2023-07-22T07:11:03;94517.00;;;31.04;48.28
6425;BME280;12193;42.642;23.384;2023-07-22T07:13:33;94512.59;;;29.87;52.00
6425;BME280;12193;42.642;23.384;2023-07-22T07:16:20;94508.16;;;31.24;47.97
6425;BME280;12193;42.642;23.384;2023-07-22T07:18:52;94505.34;;;31.41;48.75
6425;BME280;12193;42.642;23.384;2023-07-22T07:21:25;94513.66;;;31.80;47.21
6425;BME280;12193;42.642;23.384;2023-07-22T07:23:54;94509.50;;;31.71;46.05
6425;BME280;12193;42.642;23.384;2023-07-22T07:26:24;94506.78;;;31.18;47.82
6425;BME280;12193;42.642;23.384;2023-07-22T07:28:53;94499.91;;;32.14;45.76
6425;BME280;12193;42.642;23.384;2023-07-22T07:31:22;94501.94;;;32.53;44.44
6425;BME280;12193;42.642;23.384;2023-07-22T07:33:52;94492.59;;;31.50;47.83
6425;BME280;12193;42.642;23.384;2023-07-22T07:36:23;94489.69;;;31.75;47.07
6425;BME280;12193;42.642;23.384;2023-07-22T07:38:53;94497.38;;;34.11;40.40
6425;BME280;12193;42.642;23.384;2023-07-22T07:41:22;94489.22;;;33.13;41.97
6425;BME280;12193;42.642;23.384;2023-07-22T07:43:52;94486.56;;;31.85;45.48
6425;BME280;12193;42.642;23.384;2023-07-22T07:46:22;94487.91;;;31.26;47.90
6425;BME280;12193;42.642;23.384;2023-07-22T07:48:54;94489.78;;;31.67;45.97
6425;BME280;12193;42.642;23.384;2023-07-22T07:51:27;94497.22;;;31.82;46.72
6425;BME280;12193;42.642;23.384;2023-07-22T07:53:58;94491.50;;;31.83;45.55
6425;BME280;12193;42.642;23.384;2023-07-22T07:56:30;94491.44;;;31.39;47.14
6425;BME280;12193;42.642;23.384;2023-07-22T07:58:59;94487.34;;;32.42;44.75
6425;BME280;12193;42.642;23.384;2023-07-22T08:01:28;94487.09;;;33.46;41.48
6425;BME280;12193;42.642;23.384;2023-07-22T08:03:58;94483.03;;;33.52;41.38
6425;BME280;12193;42.642;23.384;2023-07-22T08:06:30;94478.22;;;33.06;42.00
6425;BME280;12193;42.642;23.384;2023-07-22T08:08:59;94478.72;;;32.48;43.21
6425;BME280;12193;42.642;23.384;2023-07-22T08:11:29;94480.50;;;32.56;45.26
6425;BME280;12193;42.642;23.384;2023-07-22T08:13:58;94475.91;;;33.59;41.35
6425;BME280;12193;42.642;23.384;2023-07-22T08:16:27;94484.56;;;34.08;40.94
6425;BME280;12193;42.642;23.384;2023-07-22T08:18:57;94479.00;;;34.78;39.31
6425;BME280;12193;42.642;23.384;2023-07-22T08:21:26;94484.41;;;34.78;39.56
6425;BME280;12193;42.642;23.384;2023-07-22T08:23:58;94473.69;;;34.19;39.93
6425;BME280;12193;42.642;23.384;2023-07-22T08:26:27;94474.72;;;34.46;39.33
6425;BME280;12193;42.642;23.384;2023-07-22T08:28:57;94463.84;;;34.58;38.81
6425;BME280;12193;42.642;23.384;2023-07-22T08:31:26;94473.44;;;34.40;38.87
6425;BME280;12193;42.642;23.384;2023-07-22T08:33:56;94465.78;;;34.26;38.44
6425;BME280;12193;42.642;23.384;2023-07-22T08:36:26;94463.94;;;34.61;38.50
6425;BME280;12193;42.642;23.384;2023-07-22T08:38:58;94470.81;;;34.43;38.67
6425;BME280;12193;42.642;23.384;2023-07-22T08:41:28;94470.50;;;34.95;37.57
6425;BME280;12193;42.642;23.384;2023-07-22T08:44:00;94461.84;;;34.70;38.24
6425;BME280;12193;42.642;23.384;2023-07-22T08:46:29;94453.34;;;32.61;42.13
6425;BME280;12193;42.642;23.384;2023-07-22T08:49:04;94447.94;;;32.01;43.45
6425;BME280;12193;42.642;23.384;2023-07-22T08:51:35;94442.78;;;32.92;41.12
6425;BME280;12193;42.642;23.384;2023-07-22T08:54:08;94434.44;;;31.78;45.20
6425;BME280;12193;42.642;23.384;2023-07-22T08:56:38;94425.84;;;33.46;40.72
6425;BME280;12193;42.642;23.384;2023-07-22T08:59:08;94427.53;;;33.23;40.42
6425;BME280;12193;42.642;23.384;2023-07-22T09:01:37;94426.03;;;33.81;39.40
6425;BME280;12193;42.642;23.384;2023-07-22T09:04:07;94426.03;;;33.53;39.77
6425;BME280;12193;42.642;23.384;2023-07-22T09:06:37;94422.59;;;34.26;39.47
6425;BME280;12193;42.642;23.384;2023-07-22T09:09:10;94421.41;;;33.97;39.34
6425;BME280;12193;42.642;23.384;2023-07-22T09:11:42;94410.91;;;33.92;39.94
6425;BME280;12193;42.642;23.384;2023-07-22T09:14:11;94419.19;;;33.28;41.16
6425;BME280;12193;42.642;23.384;2023-07-22T09:16:42;94420.97;;;33.64;40.81
6425;BME280;12193;42.642;23.384;2023-07-22T09:19:11;94421.09;;;34.29;39.21
6425;BME280;12193;42.642;23.384;2023-07-22T09:21:41;94417.34;;;34.83;38.87
6425;BME280;12193;42.642;23.384;2023-07-22T09:24:24;94417.25;;;34.61;38.75
6425;BME280;12193;42.642;23.384;2023-07-22T09:26:54;94419.19;;;35.14;37.06
6425;BME280;12193;42.642;23.384;2023-07-22T09:29:32;94422.69;;;34.99;37.64
6425;BME280;12193;42.642;23.384;2023-07-22T09:32:03;94404.41;;;34.73;37.39
6425;BME280;12193;42.642;23.384;2023-07-22T09:34:33;94408.50;;;34.67;37.78
6425;BME280;12193;42.642;23.384;2023-07-22T09:37:02;94408.34;;;33.68;40.31
6425;BME280;12193;42.642;23.384;2023-07-22T09:39:35;94404.50;;;35.33;37.23
6425;BME280;12193;42.642;23.384;2023-07-22T09:42:05;94400.81;;;35.41;36.92
6425;BME280;12193;42.642;23.384;2023-07-22T09:44:35;94414.22;;;35.00;36.70
6425;BME280;12193;42.642;23.384;2023-07-22T09:47:06;94403.31;;;33.97;39.23
6425;BME280;12193;42.642;23.384;2023-07-22T09:49:40;94392.31;;;33.59;39.34
6425;BME280;12193;42.642;23.384;2023-07-22T09:52:10;94399.34;;;34.22;38.02
6425;BME280;12193;42.642;23.384;2023-07-22T09:54:52;94398.00;;;34.81;37.05
6425;BME280;12193;42.642;23.384;2023-07-22T09:57:22;94388.34;;;36.01;34.95
6425;BME280;12193;42.642;23.384;2023-07-22T09:59:52;94390.00;;;35.04;36.54
6425;BME280;12193;42.642;23.384;2023-07-22T10:02:22;94390.59;;;34.97;36.58
6425;BME280;12193;42.642;23.384;2023-07-22T10:04:52;94377.91;;;35.17;34.91
6425;BME280;12193;42.642;23.384;2023-07-22T10:07:22;94378.06;;;35.65;35.53
6425;BME280;12193;42.642;23.384;2023-07-22T10:09:55;94383.84;;;34.88;36.61
6425;BME280;12193;42.642;23.384;2023-07-22T10:12:26;94383.25;;;36.18;35.07
6425;BME280;12193;42.642;23.384;2023-07-22T10:14:57;94379.88;;;36.25;34.11
6425;BME280;12193;42.642;23.384;2023-07-22T10:17:27;94389.13;;;35.79;34.39
6425;BME280;12193;42.642;23.384;2023-07-22T10:19:58;94385.72;;;35.82;34.83
6425;BME280;12193;42.642;23.384;2023-07-22T10:22:34;94380.56;;;35.13;34.86
6425;BME280;12193;42.642;23.384;2023-07-22T10:25:07;94374.72;;;35.52;34.31
6425;BME280;12193;42.642;23.384;2023-07-22T10:27:36;94378.91;;;35.91;34.17
6425;BME280;12193;42.642;23.384;2023-07-22T10:30:07;94374.03;;;35.36;34.82
6425;BME280;12193;42.642;23.384;2023-07-22T10:32:38;94372.50;;;35.99;34.18
6425;BME280;12193;42.642;23.384;2023-07-22T10:35:09;94376.66;;;36.67;32.91
6425;BME280;12193;42.642;23.384;2023-07-22T10:37:45;94369.84;;;37.75;31.38
6425;BME280;12193;42.642;23.384;2023-07-22T10:40:26;94369.75;;;38.55;29.03
6425;BME280;12193;42.642;23.384;2023-07-22T10:43:00;94356.28;;;37.75;29.54
6425;BME280;12193;42.642;23.384;2023-07-22T10:45:36;94354.41;;;37.43;30.63
6425;BME280;12193;42.642;23.384;2023-07-22T10:48:09;94367.53;;;37.74;30.08
6425;BME280;12193;42.642;23.384;2023-07-22T10:50:40;94358.97;;;37.72;29.83
6425;BME280;12193;42.642;23.384;2023-07-22T10:53:10;94350.66;;;37.54;29.72
6425;BME280;12193;42.642;23.384;2023-07-22T10:56:07;94350.09;;;37.78;29.63
6425;BME280;12193;42.642;23.384;2023-07-22T10:58:56;94344.09;;;37.23;28.81
6425;BME280;12193;42.642;23.384;2023-07-22T11:01:33;94340.00;;;37.06;29.78
6425;BME280;12193;42.642;23.384;2023-07-22T11:04:14;94341.19;;;37.78;29.27
6425;BME280;12193;42.642;23.384;2023-07-22T11:06:58;94333.44;;;38.84;27.38
6425;BME280;12193;42.642;23.384;2023-07-22T11:09:38;94346.28;;;38.87;25.49
6425;BME280;12193;42.642;23.384;2023-07-22T11:12:17;94337.72;;;38.85;26.22
6425;BME280;12193;42.642;23.384;2023-07-22T11:14:48;94334.78;;;39.11;25.91
6425;BME280;12193;42.642;23.384;2023-07-22T11:17:27;94334.59;;;39.96;24.86
6425;BME280;12193;42.642;23.384;2023-07-22T11:19:59;94337.28;;;39.85;24.35
6425;BME280;12193;42.642;23.384;2023-07-22T11:22:29;94341.56;;;38.70;24.99
6425;BME280;12193;42.642;23.384;2023-07-22T11:24:59;94332.56;;;38.63;25.12
6425;BME280;12193;42.642;23.384;2023-07-22T11:27:32;94327.06;;;39.41;24.95
6425;BME280;12193;42.642;23.384;2023-07-22T11:30:02;94327.84;;;39.38;25.56
6425;BME280;12193;42.642;23.384;2023-07-22T11:32:33;94323.22;;;38.63;26.05
6425;BME280;12193;42.642;23.384;2023-07-22T11:35:03;94320.84;;;38.55;25.67
6425;BME280;12193;42.642;23.384;2023-07-22T11:37:32;94319.13;;;38.26;25.90
6425;BME280;12193;42.642;23.384;2023-07-22T11:40:02;94312.06;;;38.79;26.28
6425;BME280;12193;42.642;23.384;2023-07-22T11:42:36;94304.00;;;39.07;25.47
6425;BME280;12193;42.642;23.384;2023-07-22T11:45:06;94304.00;;;39.03;24.85
6425;BME280;12193;42.642;23.384;2023-07-22T11:47:37;94300.47;;;38.89;25.06
6425;BME280;12193;42.642;23.384;2023-07-22T11:50:07;94290.41;;;39.03;24.73
6425;BME280;12193;42.642;23.384;2023-07-22T11:52:36;94297.66;;;38.71;25.22
6425;BME280;12193;42.642;23.384;2023-07-22T11:55:07;94299.94;;;38.66;24.80
6425;BME280;12193;42.642;23.384;2023-07-22T11:57:40;94298.88;;;38.24;25.81
6425;BME280;12193;42.642;23.384;2023-07-22T12:00:10;94298.69;;;37.16;27.25
6425;BME280;12193;42.642;23.384;2023-07-22T12:02:41;94301.53;;;36.64;28.11
6425;BME280;12193;42.642;23.384;2023-07-22T12:05:10;94302.91;;;37.47;27.65
6425;BME280;12193;42.642;23.384;2023-07-22T12:07:39;94290.38;;;37.78;26.84
6425;BME280;12193;42.642;23.384;2023-07-22T12:10:09;94292.50;;;38.56;25.98
6425;BME280;12193;42.642;23.384;2023-07-22T12:12:43;94279.53;;;39.10;25.95
6425;BME280;12193;42.642;23.384;2023-07-22T12:15:16;94284.25;;;39.17;25.64
6425;BME280;12193;42.642;23.384;2023-07-22T12:17:47;94286.53;;;39.08;26.48
6425;BME280;12193;42.642;23.384;2023-07-22T12:20:17;94288.28;;;38.05;26.60
6425;BME280;12193;42.642;23.384;2023-07-22T12:22:47;94276.47;;;38.30;26.60
6425;BME280;12193;42.642;23.384;2023-07-22T12:25:16;94290.34;;;38.22;26.95
6425;BME280;12193;42.642;23.384;2023-07-22T12:27:49;94280.00;;;38.45;26.69
6425;BME280;12193;42.642;23.384;2023-07-22T12:30:19;94280.84;;;37.98;26.84
6425;BME280;12193;42.642;23.384;2023-07-22T12:32:50;94268.97;;;36.94;27.22
6425;BME280;12193;42.642;23.384;2023-07-22T12:35:19;94271.50;;;36.47;28.04
6425;BME280;12193;42.642;23.384;2023-07-22T12:37:48;94268.22;;;36.93;27.96
6425;BME280;12193;42.642;23.384;2023-07-22T12:40:18;94273.56;;;36.57;28.07
6425;BME280;12193;42.642;23.384;2023-07-22T12:42:50;94265.72;;;36.48;28.53
6425;BME280;12193;42.642;23.384;2023-07-22T12:45:20;94263.47;;;36.87;28.20
6425;BME280;12193;42.642;23.384;2023-07-22T12:47:49;94270.25;;;37.40;27.91
6425;BME280;12193;42.642;23.384;2023-07-22T12:50:18;94264.91;;;37.47;28.36
6425;BME280;12193;42.642;23.384;2023-07-22T12:52:48;94267.66;;;37.14;28.36
6425;BME280;12193;42.642;23.384;2023-07-22T12:55:18;94247.75;;;36.70;27.94
6425;BME280;12193;42.642;23.384;2023-07-22T12:57:47;94256.47;;;36.53;28.28
6425;BME280;12193;42.642;23.384;2023-07-22T13:00:19;94252.41;;;37.02;27.86
6425;BME280;12193;42.642;23.384;2023-07-22T13:02:48;94246.56;;;37.00;28.42
6425;BME280;12193;42.642;23.384;2023-07-22T13:05:18;94251.78;;;36.50;27.68
6425;BME280;12193;42.642;23.384;2023-07-22T13:07:47;94239.63;;;36.70;27.79
6425;BME280;12193;42.642;23.384;2023-07-22T13:10:28;94244.53;;;37.27;27.96
6425;BME280;12193;42.642;23.384;2023-07-22T13:13:01;94240.72;;;37.35;27.52
6425;BME280;12193;42.642;23.384;2023-07-22T13:15:34;94235.41;;;37.42;28.11
6425;BME280;12193;42.642;23.384;2023-07-22T13:18:03;94234.41;;;36.87;27.44
6425;BME280;12193;42.642;23.384;2023-07-22T13:20:32;94221.44;;;36.67;28.00
6425;BME280;12193;42.642;23.384;2023-07-22T13:23:02;94229.13;;;36.36;28.40
6425;BME280;12193;42.642;23.384;2023-07-22T13:25:31;94229.66;;;36.19;29.46
6425;BME280;12193;42.642;23.384;2023-07-22T13:28:00;94230.41;;;36.74;29.21
6425;BME280;12193;42.642;23.384;2023-07-22T13:30:29;94231.09;;;37.01;28.53
6425;BME280;12193;42.642;23.384;2023-07-22T13:33:02;94236.13;;;36.99;29.37
6425;BME280;12193;42.642;23.384;2023-07-22T13:35:31;94216.84;;;37.11;29.15
6425;BME280;12193;42.642;23.384;2023-07-22T13:38:00;94214.09;;;37.04;28.47
6425;BME280;12193;42.642;23.384;2023-07-22T13:40:30;94212.94;;;37.05;28.92
6425;BME280;12193;42.642;23.384;2023-07-22T13:42:59;94219.44;;;37.37;28.20
6425;BME280;12193;42.642;23.384;2023-07-22T13:45:29;94205.41;;;37.74;27.75
6425;BME280;12193;42.642;23.384;2023-07-22T13:48:00;94208.28;;;37.95;27.67
6425;BME280;12193;42.642;23.384;2023-07-22T13:50:30;94211.16;;;37.62;28.14
6425;BME280;12193;42.642;23.384;2023-07-22T13:52:59;94203.38;;;37.61;28.30
6425;BME280;12193;42.642;23.384;2023-07-22T13:55:28;94202.91;;;37.49;27.99
6425;BME280;12193;42.642;23.384;2023-07-22T13:57:58;94202.59;;;37.60;28.45
6425;BME280;12193;42.642;23.384;2023-07-22T14:00:27;94194.44;;;37.57;28.48
6425;BME280;12193;42.642;23.384;2023-07-22T14:02:57;94176.44;;;36.95;29.02
6425;BME280;12193;42.642;23.384;2023-07-22T14:05:29;94191.66;;;37.07;29.19
6425;BME280;12193;42.642;23.384;2023-07-22T14:07:58;94192.84;;;37.09;29.08
6425;BME280;12193;42.642;23.384;2023-07-22T14:10:27;94194.91;;;37.26;29.28
6425;BME280;12193;42.642;23.384;2023-07-22T14:12:56;94195.44;;;36.99;29.64
6425;BME280;12193;42.642;23.384;2023-07-22T14:15:26;94198.94;;;36.66;29.81
6425;BME280;12193;42.642;23.384;2023-07-22T14:17:55;94198.19;;;36.66;29.93
6425;BME280;12193;42.642;23.384;2023-07-22T14:20:24;94198.47;;;36.57;29.68
6425;BME280;12193;42.642;23.384;2023-07-22T14:22:59;94210.81;;;36.55;29.33
6425;BME280;12193;42.642;23.384;2023-07-22T14:25:28;94208.03;;;36.48;29.94
6425;BME280;12193;42.642;23.384;2023-07-22T14:27:58;94217.03;;;36.26;30.21
6425;BME280;12193;42.642;23.384;2023-07-22T14:30:27;94209.91;;;36.44;29.25
6425;BME280;12193;42.642;23.384;2023-07-22T14:32:56;94216.44;;;36.72;28.87
6425;BME280;12193;42.642;23.384;2023-07-22T14:35:26;94225.44;;;36.80;28.52
6425;BME280;12193;42.642;23.384;2023-07-22T14:37:55;94220.41;;;36.82;29.15
6425;BME280;12193;42.642;23.384;2023-07-22T14:40:28;94221.91;;;36.76;28.61
6425;BME280;12193;42.642;23.384;2023-07-22T14:42:57;94235.44;;;36.14;29.48
6425;BME280;12193;42.642;23.384;2023-07-22T14:45:27;94218.50;;;36.20;29.28
6425;BME280;12193;42.642;23.384;2023-07-22T14:47:56;94218.84;;;35.93;29.18
6425;BME280;12193;42.642;23.384;2023-07-22T14:50:26;94222.94;;;36.35;28.69
6425;BME280;12193;42.642;23.384;2023-07-22T14:52:56;94217.19;;;36.40;28.51
6425;BME280;12193;42.642;23.384;2023-07-22T14:55:28;94205.56;;;36.69;27.84
6425;BME280;12193;42.642;23.384;2023-07-22T14:57:57;94210.28;;;36.75;28.25
6425;BME280;12193;42.642;23.384;2023-07-22T15:00:27;94206.63;;;36.61;28.69
6425;BME280;12193;42.642;23.384;2023-07-22T15:02:56;94214.25;;;36.52;28.82
6425;BME280;12193;42.642;23.384;2023-07-22T15:05:25;94207.06;;;36.04;29.33
6425;BME280;12193;42.642;23.384;2023-07-22T15:07:55;94218.97;;;36.29;29.38
6425;BME280;12193;42.642;23.384;2023-07-22T15:10:27;94219.25;;;36.50;29.10
6425;BME280;12193;42.642;23.384;2023-07-22T15:12:57;94218.78;;;36.15;29.98
6425;BME280;12193;42.642;23.384;2023-07-22T15:15:26;94215.59;;;36.06;29.55
6425;BME280;12193;42.642;23.384;2023-07-22T15:17:55;94216.41;;;35.84;29.92
6425;BME280;12193;42.642;23.384;2023-07-22T15:20:24;94211.56;;;35.71;29.91
6425;BME280;12193;42.642;23.384;2023-07-22T15:22:53;94218.28;;;35.32;30.60
6425;BME280;12193;42.642;23.384;2023-07-22T15:25:22;94231.31;;;35.27;30.56
6425;BME280;12193;42.642;23.384;2023-07-22T15:27:55;94224.56;;;35.62;30.61
6425;BME280;12193;42.642;23.384;2023-07-22T15:30:24;94219.53;;;35.60;30.73
6425;BME280;12193;42.642;23.384;2023-07-22T15:32:53;94224.28;;;35.44;31.18
6425;BME280;12193;42.642;23.384;2023-07-22T15:35:22;94219.66;;;35.23;31.73
6425;BME280;12193;42.642;23.384;2023-07-22T15:37:52;94211.66;;;35.29;31.95
6425;BME280;12193;42.642;23.384;2023-07-22T15:40:22;94218.38;;;35.39;31.53
6425;BME280;12193;42.642;23.384;2023-07-22T15:42:53;94223.69;;;35.32;31.41
6425;BME280;12193;42.642;23.384;2023-07-22T15:45:24;94228.47;;;35.42;31.59
6425;BME280;12193;42.642;23.384;2023-07-22T15:47:53;94229.31;;;35.46;31.75
6425;BME280;12193;42.642;23.384;2023-07-22T15:50:22;94210.38;;;35.46;31.71
6425;BME280;12193;42.642;23.384;2023-07-22T15:52:52;94202.88;;;35.58;31.37
6425;BME280;12193;42.642;23.384;2023-07-22T15:55:22;94215.38;;;35.44;31.67
6425;BME280;12193;42.642;23.384;2023-07-22T15:57:54;94206.69;;;35.09;32.13
6425;BME280;12193;42.642;23.384;2023-07-22T16:00:23;94203.63;;;34.92;32.88
6425;BME280;12193;42.642;23.384;2023-07-22T16:02:52;94211.00;;;34.72;32.66
6425;BME280;12193;42.642;23.384;2023-07-22T16:05:22;94212.47;;;34.32;33.77
6425;BME280;12193;42.642;23.384;2023-07-22T16:07:51;94208.00;;;34.20;33.82
6425;BME280;12193;42.642;23.384;2023-07-22T16:10:21;94212.66;;;34.05;34.08
6425;BME280;12193;42.642;23.384;2023-07-22T16:12:51;94213.31;;;33.83;34.64
6425;BME280;12193;42.642;23.384;2023-07-22T16:15:24;94212.03;;;33.77;35.58
6425;BME280;12193;42.642;23.384;2023-07-22T16:17:54;94194.69;;;33.78;36.83
6425;BME280;12193;42.642;23.384;2023-07-22T16:20:23;94213.38;;;33.52;39.06
6425;BME280;12193;42.642;23.384;2023-07-22T16:22:52;94218.50;;;33.41;40.04
6425;BME280;12193;42.642;23.384;2023-07-22T16:25:22;94217.53;;;33.49;40.77